createdAt,value
2023-04-18T00:00:03.215Z,8.61
2023-04-18T00:01:03.182Z,8.58
2023-04-18T00:02:03.276Z,8.58
2023-04-18T00:03:04.692Z,8.56
2023-04-18T00:04:03.372Z,8.55
2023-04-18T00:05:03.275Z,8.50
2023-04-18T00:06:03.132Z,8.52
2023-04-18T00:07:03.125Z,8.55
2023-04-18T00:08:03.248Z,8.53
2023-04-18T00:09:03.155Z,8.50
2023-04-18T00:10:03.091Z,8.50
2023-04-18T00:11:03.139Z,8.50
2023-04-18T00:12:03.111Z,8.50
2023-04-18T00:13:03.047Z,8.53
2023-04-18T00:14:03.062Z,8.50
2023-04-18T00:15:03.094Z,8.47
2023-04-18T00:16:03.129Z,8.50
2023-04-18T00:17:03.105Z,8.44
2023-04-18T00:18:03.145Z,8.47
2023-04-18T00:19:02.990Z,8.45
2023-04-18T00:20:02.997Z,8.44
2023-04-18T00:21:02.966Z,8.45
2023-04-18T00:22:02.965Z,8.45
2023-04-18T00:23:02.948Z,8.45
2023-04-18T00:24:02.943Z,8.50
2023-04-18T00:25:02.953Z,8.48
2023-04-18T00:26:02.947Z,8.52
2023-04-18T00:27:02.898Z,8.47
2023-04-18T00:28:02.914Z,8.48
2023-04-18T00:29:02.881Z,8.45
2023-04-18T00:30:02.879Z,8.47
2023-04-18T00:31:03.274Z,8.44
2023-04-18T00:32:02.899Z,8.44
2023-04-18T00:33:02.896Z,8.41
2023-04-18T00:34:02.832Z,8.43
2023-04-18T00:35:03.313Z,8.44
2023-04-18T00:36:02.810Z,8.38
2023-04-18T00:37:02.822Z,8.38
2023-04-18T00:38:02.791Z,8.37
2023-04-18T00:39:03.633Z,8.37
2023-04-18T00:40:02.778Z,8.36
2023-04-18T00:41:02.762Z,8.37
2023-04-18T00:42:02.765Z,8.38
2023-04-18T00:43:02.748Z,8.40
2023-04-18T00:44:02.730Z,8.38
2023-04-18T00:45:02.714Z,8.38
2023-04-18T00:46:02.722Z,8.37
2023-04-18T00:47:02.694Z,8.37
2023-04-18T00:48:02.718Z,8.36
2023-04-18T00:49:02.678Z,8.37
2023-04-18T00:50:02.666Z,8.37
2023-04-18T00:51:02.652Z,8.36
2023-04-18T00:52:02.640Z,8.36
2023-04-18T00:53:02.624Z,8.36
2023-04-18T00:54:02.650Z,8.36
2023-04-18T00:55:02.608Z,8.38
2023-04-18T00:56:02.600Z,8.38
2023-04-18T00:57:02.584Z,8.37
2023-04-18T00:58:02.587Z,8.41
2023-04-18T00:59:02.570Z,8.36
2023-04-18T01:00:02.555Z,8.37
2023-04-18T01:01:02.703Z,8.33
2023-04-18T01:02:02.700Z,8.36
2023-04-18T01:03:02.919Z,8.33
2023-04-18T01:04:02.567Z,8.34
2023-04-18T01:05:02.495Z,8.34
2023-04-18T01:06:02.510Z,8.36
2023-04-18T01:07:02.479Z,8.36
2023-04-18T01:08:02.519Z,8.37
2023-04-18T01:09:02.460Z,8.36
2023-04-18T01:10:02.465Z,8.37
2023-04-18T01:11:02.444Z,8.37
2023-04-18T01:12:02.428Z,8.37
2023-04-18T01:13:02.427Z,8.37
2023-04-18T01:14:02.426Z,8.36
2023-04-18T01:15:02.397Z,8.34
2023-04-18T01:16:02.425Z,8.37
2023-04-18T01:17:02.364Z,8.34
2023-04-18T01:18:02.396Z,8.33
2023-04-18T01:19:02.347Z,8.34
2023-04-18T01:20:02.377Z,8.30
2023-04-18T01:21:02.356Z,8.33
2023-04-18T01:22:02.331Z,8.33
2023-04-18T01:23:02.309Z,8.34
2023-04-18T01:24:02.306Z,8.33
2023-04-18T01:25:02.324Z,8.34
2023-04-18T01:26:02.283Z,8.29
2023-04-18T01:27:02.317Z,8.34
2023-04-18T01:28:02.259Z,8.33
2023-04-18T01:29:02.259Z,8.33
2023-04-18T01:30:02.374Z,8.29
2023-04-18T01:31:02.275Z,8.34
2023-04-18T01:32:02.228Z,8.34
2023-04-18T01:33:02.337Z,8.33
2023-04-18T01:34:02.198Z,8.30
2023-04-18T01:35:02.178Z,8.30
2023-04-18T01:36:02.232Z,8.29
2023-04-18T01:37:02.292Z,8.30
2023-04-18T01:38:02.153Z,8.30
2023-04-18T01:39:02.168Z,8.29
2023-04-18T01:40:02.146Z,8.29
2023-04-18T01:41:02.135Z,8.26
2023-04-18T01:42:02.230Z,8.28
2023-04-18T01:43:02.140Z,8.28
2023-04-18T01:44:02.098Z,8.26
2023-04-18T01:45:02.082Z,8.26
2023-04-18T01:46:02.067Z,8.28
2023-04-18T01:47:02.192Z,8.28
2023-04-18T01:48:03.039Z,8.28
2023-04-18T01:49:02.035Z,8.26
2023-04-18T01:50:02.045Z,8.29
2023-04-18T01:51:02.017Z,8.30
2023-04-18T01:52:02.057Z,8.26
2023-04-18T01:53:01.993Z,8.28
2023-04-18T01:54:02.063Z,8.28
2023-04-18T01:55:01.981Z,8.25
2023-04-18T01:56:02.013Z,8.26
2023-04-18T01:57:01.971Z,8.28
2023-04-18T01:58:01.971Z,8.25
2023-04-18T01:59:01.942Z,8.23
2023-04-18T02:00:01.945Z,8.20
2023-04-18T02:01:02.017Z,8.19
2023-04-18T02:02:01.972Z,8.20
2023-04-18T02:03:02.106Z,8.20
2023-04-18T02:04:01.971Z,8.19
2023-04-18T02:05:01.870Z,8.15
2023-04-18T02:06:01.946Z,8.15
2023-04-18T02:07:01.945Z,8.15
2023-04-18T02:08:01.851Z,8.12
2023-04-18T02:09:01.830Z,8.11
2023-04-18T02:10:02.046Z,8.10
2023-04-18T02:11:01.809Z,8.10
2023-04-18T02:12:01.821Z,8.07
2023-04-18T02:13:01.803Z,8.05
2023-04-18T02:14:01.786Z,8.02
2023-04-18T02:15:01.843Z,8.00
2023-04-18T02:16:01.855Z,7.98
2023-04-18T02:17:01.924Z,7.98
2023-04-18T02:18:01.800Z,7.92
2023-04-18T02:19:01.710Z,7.90
2023-04-18T02:20:01.717Z,7.90
2023-04-18T02:21:01.723Z,7.89
2023-04-18T02:22:01.774Z,7.87
2023-04-18T02:23:01.683Z,7.87
2023-04-18T02:24:01.687Z,7.90
2023-04-18T02:25:01.699Z,7.90
2023-04-18T02:26:01.669Z,7.89
2023-04-18T02:27:01.632Z,7.92
2023-04-18T02:28:01.642Z,7.89
2023-04-18T02:29:01.609Z,7.87
2023-04-18T02:30:01.644Z,7.89
2023-04-18T02:31:01.599Z,7.92
2023-04-18T02:32:01.829Z,7.90
2023-04-18T02:33:01.852Z,7.86
2023-04-18T02:34:01.562Z,7.86
2023-04-18T02:35:01.616Z,7.86
2023-04-18T02:36:01.568Z,7.85
2023-04-18T02:37:01.565Z,7.89
2023-04-18T02:38:01.530Z,7.87
2023-04-18T02:39:01.517Z,7.90
2023-04-18T02:40:01.509Z,7.93
2023-04-18T02:41:01.486Z,7.93
2023-04-18T02:42:01.490Z,7.92
2023-04-18T02:43:01.564Z,7.90
2023-04-18T02:44:01.464Z,7.92
2023-04-18T02:45:01.442Z,7.92
2023-04-18T02:46:01.542Z,7.93
2023-04-18T02:47:01.515Z,7.90
2023-04-18T02:48:01.462Z,7.90
2023-04-18T02:49:01.401Z,7.92
2023-04-18T02:50:01.460Z,7.92
2023-04-18T02:51:01.380Z,7.93
2023-04-18T02:52:01.394Z,7.92
2023-04-18T02:53:01.365Z,7.92
2023-04-18T02:54:01.359Z,7.97
2023-04-18T02:55:01.361Z,7.97
2023-04-18T02:56:01.637Z,7.97
2023-04-18T02:57:01.350Z,8.00
2023-04-18T02:58:01.344Z,8.02
2023-04-18T02:59:01.362Z,8.02
2023-04-18T03:00:01.287Z,8.00
2023-04-18T03:01:01.316Z,8.01
2023-04-18T03:02:02.204Z,8.00
2023-04-18T03:03:01.450Z,8.04
2023-04-18T03:04:01.271Z,8.05
2023-04-18T03:05:01.358Z,8.01
2023-04-18T03:06:01.448Z,8.04
2023-04-18T03:07:01.218Z,8.02
2023-04-18T03:08:01.208Z,8.04
2023-04-18T03:09:01.206Z,8.01
2023-04-18T03:10:01.188Z,8.01
2023-04-18T03:11:01.184Z,8.00
2023-04-18T03:12:01.153Z,8.00
2023-04-18T03:13:01.161Z,8.01
2023-04-18T03:14:01.134Z,8.02
2023-04-18T03:15:01.127Z,7.98
2023-04-18T03:16:01.150Z,7.98
2023-04-18T03:17:01.114Z,8.01
2023-04-18T03:18:01.282Z,8.00
2023-04-18T03:19:01.095Z,8.00
2023-04-18T03:20:01.086Z,8.01
2023-04-18T03:21:01.070Z,7.97
2023-04-18T03:22:01.063Z,8.00
2023-04-18T03:23:01.060Z,7.98
2023-04-18T03:24:01.042Z,8.00
2023-04-18T03:25:01.041Z,8.00
2023-04-18T03:26:01.018Z,8.01
2023-04-18T03:27:01.254Z,8.00
2023-04-18T03:28:00.998Z,8.02
2023-04-18T03:29:00.984Z,8.00
2023-04-18T03:30:00.994Z,7.97
2023-04-18T03:31:01.044Z,8.01
2023-04-18T03:32:00.963Z,8.01
2023-04-18T03:33:01.002Z,8.02
2023-04-18T03:34:00.934Z,8.01
2023-04-18T03:35:00.920Z,8.00
2023-04-18T03:36:00.907Z,8.01
2023-04-18T03:37:00.893Z,7.98
2023-04-18T03:38:00.878Z,8.00
2023-04-18T03:39:00.872Z,8.01
2023-04-18T03:40:00.865Z,8.00
2023-04-18T03:41:00.862Z,8.00
2023-04-18T03:42:00.846Z,7.97
2023-04-18T03:43:00.848Z,7.92
2023-04-18T03:44:00.811Z,7.98
2023-04-18T03:45:00.809Z,7.97
2023-04-18T03:46:00.836Z,7.97
2023-04-18T03:47:00.800Z,7.97
2023-04-18T03:48:00.892Z,7.95
2023-04-18T03:49:00.777Z,7.98
2023-04-18T03:50:00.755Z,8.00
2023-04-18T03:51:00.778Z,7.98
2023-04-18T03:52:00.738Z,7.97
2023-04-18T03:53:00.745Z,8.01
2023-04-18T03:54:00.710Z,8.00
2023-04-18T03:55:00.707Z,8.01
2023-04-18T03:56:00.691Z,8.02
2023-04-18T03:57:00.702Z,8.02
2023-04-18T03:58:00.664Z,8.00
2023-04-18T03:59:00.670Z,8.02
2023-04-18T04:00:00.647Z,8.02
2023-04-18T04:01:00.667Z,8.01
2023-04-18T04:02:00.692Z,8.01
2023-04-18T04:03:00.778Z,7.97
2023-04-18T04:04:00.687Z,8.01
2023-04-18T04:05:00.671Z,7.98
2023-04-18T04:06:00.582Z,7.97
2023-04-18T04:07:00.589Z,7.98
2023-04-18T04:08:00.588Z,7.95
2023-04-18T04:09:00.563Z,7.97
2023-04-18T04:10:00.540Z,7.95
2023-04-18T04:11:00.551Z,7.97
2023-04-18T04:12:00.582Z,7.92
2023-04-18T04:13:01.324Z,7.92
2023-04-18T04:14:00.505Z,7.92
2023-04-18T04:15:00.493Z,7.90
2023-04-18T04:16:00.621Z,7.89
2023-04-18T04:17:00.512Z,7.90
2023-04-18T04:18:00.516Z,7.89
2023-04-18T04:19:00.461Z,7.87
2023-04-18T04:20:00.441Z,7.86
2023-04-18T04:21:00.443Z,7.89
2023-04-18T04:22:01.234Z,7.90
2023-04-18T04:23:00.424Z,7.89
2023-04-18T04:24:00.611Z,7.89
2023-04-18T04:25:00.396Z,7.87
2023-04-18T04:26:00.378Z,7.86
2023-04-18T04:27:00.376Z,7.85
2023-04-18T04:28:00.349Z,7.87
2023-04-18T04:29:00.358Z,7.86
2023-04-18T04:30:00.330Z,7.89
2023-04-18T04:31:00.333Z,7.85
2023-04-18T04:32:00.331Z,7.87
2023-04-18T04:33:00.323Z,7.89
2023-04-18T04:34:00.292Z,7.86
2023-04-18T04:35:00.293Z,7.85
2023-04-18T04:36:00.267Z,7.83
2023-04-18T04:37:00.262Z,7.85
2023-04-18T04:38:00.249Z,7.85
2023-04-18T04:39:00.241Z,7.86
2023-04-18T04:40:00.224Z,7.83
2023-04-18T04:41:00.221Z,7.85
2023-04-18T04:42:00.265Z,7.86
2023-04-18T04:43:00.193Z,7.85
2023-04-18T04:44:00.188Z,7.83
2023-04-18T04:45:00.331Z,7.80
2023-04-18T04:46:00.245Z,7.80
2023-04-18T04:47:00.156Z,7.80
2023-04-18T04:48:00.266Z,7.82
2023-04-18T04:49:00.161Z,7.83
2023-04-18T04:50:00.176Z,7.80
2023-04-18T04:51:00.142Z,7.80
2023-04-18T04:52:01.916Z,7.82
2023-04-18T04:53:00.904Z,7.82
2023-04-18T04:54:00.088Z,7.83
2023-04-18T04:55:00.094Z,7.82
2023-04-18T04:56:00.048Z,7.82
2023-04-18T04:57:00.061Z,7.82
2023-04-18T04:58:00.024Z,7.83
2023-04-18T04:59:00.030Z,7.80
2023-04-18T05:00:00.009Z,7.80
2023-04-18T05:01:00.030Z,7.80
2023-04-18T05:02:00.007Z,7.80
2023-04-18T05:03:00.164Z,7.80
2023-04-18T05:04:00.050Z,7.80
2023-04-18T05:04:59.961Z,7.82
2023-04-18T05:05:59.955Z,7.82
2023-04-18T05:06:59.944Z,7.83
2023-04-18T05:07:59.943Z,7.83
2023-04-18T05:08:59.922Z,7.86
2023-04-18T05:09:59.901Z,7.85
2023-04-18T05:10:59.897Z,7.83
2023-04-18T05:11:59.884Z,7.82
2023-04-18T05:12:59.871Z,7.80
2023-04-18T05:13:59.862Z,7.85
2023-04-18T05:14:59.865Z,7.86
2023-04-18T05:15:59.843Z,7.83
2023-04-18T05:16:59.945Z,7.85
2023-04-18T05:17:59.880Z,7.86
2023-04-18T05:18:59.811Z,7.89
2023-04-18T05:19:59.802Z,7.89
2023-04-18T05:20:59.798Z,7.89
2023-04-18T05:21:59.778Z,7.87
2023-04-18T05:22:59.771Z,7.89
2023-04-18T05:23:59.761Z,7.89
2023-04-18T05:24:59.942Z,7.89
2023-04-18T05:25:59.768Z,7.90
2023-04-18T05:26:59.733Z,7.87
2023-04-18T05:27:59.712Z,7.93
2023-04-18T05:28:59.710Z,7.93
2023-04-18T05:29:59.697Z,7.93
2023-04-18T05:30:59.752Z,7.92
2023-04-18T05:31:59.671Z,7.95
2023-04-18T05:32:59.716Z,7.97
2023-04-18T05:33:59.861Z,8.00
2023-04-18T05:34:59.653Z,8.02
2023-04-18T05:35:59.681Z,8.04
2023-04-18T05:36:59.632Z,8.05
2023-04-18T05:37:59.627Z,8.08
2023-04-18T05:38:59.608Z,8.07
2023-04-18T05:40:00.722Z,8.11
2023-04-18T05:40:59.590Z,8.11
2023-04-18T05:41:59.580Z,8.11
2023-04-18T05:42:59.563Z,8.15
2023-04-18T05:44:05.426Z,8.18
2023-04-18T05:45:00.557Z,8.19
2023-04-18T05:45:59.577Z,8.22
2023-04-18T05:46:59.531Z,8.22
2023-04-18T05:47:59.570Z,8.26
2023-04-18T05:48:59.509Z,8.26
2023-04-18T05:49:59.487Z,8.26
2023-04-18T05:50:59.490Z,8.28
2023-04-18T05:51:59.461Z,8.29
2023-04-18T05:52:59.477Z,8.28
2023-04-18T05:53:59.439Z,8.30
2023-04-18T05:54:59.444Z,8.34
2023-04-18T05:55:59.419Z,8.36
2023-04-18T05:56:59.420Z,8.36
2023-04-18T05:57:59.393Z,8.38
2023-04-18T05:58:59.393Z,8.40
2023-04-18T05:59:59.384Z,8.44
2023-04-18T06:00:59.380Z,8.40
2023-04-18T06:01:59.374Z,8.47
2023-04-18T06:02:59.550Z,8.50
2023-04-18T06:03:59.429Z,8.48
2023-04-18T06:04:59.576Z,8.53
2023-04-18T06:05:59.364Z,8.55
2023-04-18T06:06:59.319Z,8.56
2023-04-18T06:07:59.297Z,8.63
2023-04-18T06:08:59.295Z,8.65
2023-04-18T06:09:59.284Z,8.65
2023-04-18T06:10:59.285Z,8.68
2023-04-18T06:11:59.252Z,8.74
2023-04-18T06:12:59.250Z,8.76
2023-04-18T06:13:59.233Z,8.79
2023-04-18T06:14:59.230Z,8.83
2023-04-18T06:15:59.234Z,8.87
2023-04-18T06:16:59.421Z,8.92
2023-04-18T06:17:59.213Z,8.92
2023-04-18T06:19:01.221Z,8.94
2023-04-18T06:19:59.185Z,8.92
2023-04-18T06:20:59.175Z,8.96
2023-04-18T06:21:59.158Z,9.02
2023-04-18T06:22:59.161Z,9.04
2023-04-18T06:23:59.137Z,9.05
2023-04-18T06:24:59.131Z,9.11
2023-04-18T06:25:59.113Z,9.15
2023-04-18T06:26:59.133Z,9.21
2023-04-18T06:27:59.096Z,9.24
2023-04-18T06:28:59.118Z,9.32
2023-04-18T06:29:59.144Z,9.35
2023-04-18T06:30:59.061Z,9.39
2023-04-18T06:31:59.169Z,9.43
2023-04-18T06:32:59.118Z,9.48
2023-04-18T06:33:59.042Z,9.50
2023-04-18T06:34:59.028Z,9.50
2023-04-18T06:35:59.008Z,9.53
2023-04-18T06:36:59.009Z,9.56
2023-04-18T06:37:58.999Z,9.58
2023-04-18T06:38:58.988Z,9.61
2023-04-18T06:39:58.965Z,9.58
2023-04-18T06:40:58.967Z,9.65
2023-04-18T06:41:58.943Z,9.68
2023-04-18T06:42:58.940Z,9.71
2023-04-18T06:44:04.187Z,9.75
2023-04-18T06:44:59.932Z,9.79
2023-04-18T06:45:58.949Z,9.79
2023-04-18T06:46:58.903Z,9.86
2023-04-18T06:47:58.929Z,9.84
2023-04-18T06:48:58.888Z,9.86
2023-04-18T06:49:58.890Z,9.84
2023-04-18T06:50:58.860Z,9.86
2023-04-18T06:51:58.841Z,9.91
2023-04-18T06:52:58.843Z,9.99
2023-04-18T06:53:58.823Z,10.07
2023-04-18T06:54:58.847Z,10.12
2023-04-18T06:55:58.796Z,10.15
2023-04-18T06:56:58.805Z,10.12
2023-04-18T06:57:58.784Z,10.11
2023-04-18T06:58:58.779Z,10.17
2023-04-18T06:59:58.752Z,10.26
2023-04-18T07:00:58.797Z,10.32
2023-04-18T07:01:58.774Z,10.38
2023-04-18T07:02:58.899Z,10.47
2023-04-18T07:03:58.798Z,10.55
2023-04-18T07:04:58.713Z,10.66
2023-04-18T07:05:58.696Z,10.74
2023-04-18T07:06:58.687Z,10.71
2023-04-18T07:07:58.677Z,10.66
2023-04-18T07:08:58.674Z,10.66
2023-04-18T07:09:58.659Z,10.59
2023-04-18T07:10:58.646Z,10.52
2023-04-18T07:11:58.626Z,10.61
2023-04-18T07:12:58.616Z,10.67
2023-04-18T07:13:58.632Z,10.67
2023-04-18T07:14:58.588Z,10.78
2023-04-18T07:15:58.599Z,10.86
2023-04-18T07:16:58.599Z,10.96
2023-04-18T07:17:58.648Z,11.04
2023-04-18T07:18:58.547Z,11.10
2023-04-18T07:19:58.546Z,11.24
2023-04-18T07:20:58.524Z,11.29
2023-04-18T07:21:58.527Z,11.19
2023-04-18T07:22:58.500Z,11.11
2023-04-18T07:23:58.505Z,10.94
2023-04-18T07:24:58.491Z,10.79
2023-04-18T07:25:58.472Z,10.78
2023-04-18T07:26:58.466Z,10.76
2023-04-18T07:27:58.462Z,10.63
2023-04-18T07:28:58.454Z,10.63
2023-04-18T07:29:58.443Z,10.67
2023-04-18T07:30:58.512Z,10.70
2023-04-18T07:31:58.412Z,10.81
2023-04-18T07:32:58.479Z,10.91
2023-04-18T07:33:58.399Z,10.99
2023-04-18T07:34:58.397Z,11.06
2023-04-18T07:35:58.381Z,11.06
2023-04-18T07:36:58.356Z,11.18
2023-04-18T07:37:58.351Z,11.17
2023-04-18T07:38:58.355Z,11.02
2023-04-18T07:39:58.331Z,11.06
2023-04-18T07:40:58.312Z,11.14
2023-04-18T07:41:58.315Z,11.17
2023-04-18T07:42:58.303Z,11.14
2023-04-18T07:43:58.290Z,11.19
2023-04-18T07:44:58.288Z,11.17
2023-04-18T07:45:58.299Z,11.39
2023-04-18T07:46:58.250Z,11.58
2023-04-18T07:47:58.313Z,11.70
2023-04-18T07:48:58.227Z,11.90
2023-04-18T07:49:58.235Z,11.94
2023-04-18T07:50:58.206Z,11.94
2023-04-18T07:51:58.206Z,11.96
2023-04-18T07:52:58.185Z,11.86
2023-04-18T07:53:58.188Z,12.01
2023-04-18T07:54:58.162Z,12.19
2023-04-18T07:55:58.176Z,12.28
2023-04-18T07:56:58.149Z,12.62
2023-04-18T07:57:58.142Z,12.86
2023-04-18T07:58:58.133Z,12.79
2023-04-18T07:59:58.144Z,12.64
2023-04-18T08:00:58.111Z,12.70
2023-04-18T08:01:58.158Z,12.59
2023-04-18T08:02:58.171Z,12.45
2023-04-18T08:03:58.266Z,12.29
2023-04-18T08:04:58.242Z,12.37
2023-04-18T08:05:58.068Z,12.47
2023-04-18T08:06:58.090Z,12.41
2023-04-18T08:07:58.043Z,12.45
2023-04-18T08:08:58.013Z,12.37
2023-04-18T08:09:58.040Z,12.32
2023-04-18T08:10:57.998Z,12.24
2023-04-18T08:11:57.998Z,12.60
2023-04-18T08:12:57.993Z,12.70
2023-04-18T08:13:57.976Z,12.59
2023-04-18T08:14:57.956Z,12.60
2023-04-18T08:15:58.003Z,12.64
2023-04-18T08:16:57.942Z,12.54
2023-04-18T08:17:58.010Z,12.64
2023-04-18T08:18:57.927Z,12.45
2023-04-18T08:19:57.927Z,12.56
2023-04-18T08:20:58.041Z,12.74
2023-04-18T08:21:57.918Z,12.65
2023-04-18T08:23:07.490Z,12.77
2023-04-18T08:23:58.883Z,12.83
2023-04-18T08:25:05.002Z,12.96
2023-04-18T08:25:58.867Z,13.19
2023-04-18T08:26:57.838Z,13.44
2023-04-18T08:27:57.832Z,13.48
2023-04-18T08:28:57.816Z,13.52
2023-04-18T08:29:57.807Z,13.62
2023-04-18T08:30:57.785Z,13.63
2023-04-18T08:31:57.882Z,13.77
2023-04-18T08:32:57.786Z,13.84
2023-04-18T08:33:57.791Z,13.79
2023-04-18T08:34:57.761Z,13.66
2023-04-18T08:35:57.749Z,13.81
2023-04-18T08:36:57.722Z,13.91
2023-04-18T08:37:57.720Z,14.21
2023-04-18T08:38:57.702Z,14.42
2023-04-18T08:39:57.713Z,14.61
2023-04-18T08:40:57.690Z,14.70
2023-04-18T08:41:57.685Z,14.72
2023-04-18T08:42:57.655Z,14.54
2023-04-18T08:43:57.654Z,14.45
2023-04-18T08:44:57.635Z,14.40
2023-04-18T08:45:57.665Z,14.42
2023-04-18T08:46:57.650Z,14.32
2023-04-18T08:47:57.662Z,14.04
2023-04-18T08:48:57.599Z,14.12
2023-04-18T08:49:57.597Z,14.10
2023-04-18T08:50:57.586Z,14.36
2023-04-18T08:51:57.586Z,14.12
2023-04-18T08:52:57.556Z,14.37
2023-04-18T08:53:57.548Z,14.52
2023-04-18T08:54:57.549Z,14.15
2023-04-18T08:55:57.547Z,14.21
2023-04-18T08:56:57.515Z,14.15
2023-04-18T08:57:57.510Z,14.15
2023-04-18T08:58:57.488Z,14.54
2023-04-18T08:59:57.487Z,14.84
2023-04-18T09:00:57.493Z,14.72
2023-04-18T09:01:57.557Z,14.65
2023-04-18T09:02:57.750Z,14.83
2023-04-18T09:03:57.473Z,15.02
2023-04-18T09:04:57.421Z,14.89
2023-04-18T09:05:57.417Z,14.64
2023-04-18T09:06:57.400Z,14.43
2023-04-18T09:07:57.433Z,14.61
2023-04-18T09:08:57.387Z,14.99
2023-04-18T09:09:57.397Z,15.29
2023-04-18T09:10:57.365Z,15.49
2023-04-18T09:11:57.356Z,15.67
2023-04-18T09:12:57.333Z,15.89
2023-04-18T09:13:57.355Z,16.11
2023-04-18T09:14:57.313Z,16.31
2023-04-18T09:15:57.313Z,15.78
2023-04-18T09:16:57.384Z,14.99
2023-04-18T09:17:57.327Z,14.62
2023-04-18T09:18:57.281Z,14.51
2023-04-18T09:19:57.280Z,14.28
2023-04-18T09:20:57.258Z,14.42
2023-04-18T09:21:57.253Z,14.95
2023-04-18T09:22:57.236Z,15.03
2023-04-18T09:23:57.233Z,15.14
2023-04-18T09:24:57.225Z,15.23
2023-04-18T09:25:57.208Z,15.13
2023-04-18T09:26:57.243Z,14.95
2023-04-18T09:27:57.198Z,14.57
2023-04-18T09:28:57.166Z,14.25
2023-04-18T09:29:58.005Z,14.15
2023-04-18T09:30:57.190Z,14.42
2023-04-18T09:31:57.149Z,14.99
2023-04-18T09:32:57.152Z,15.38
2023-04-18T09:33:57.937Z,15.49
2023-04-18T09:34:57.113Z,15.35
2023-04-18T09:35:57.270Z,15.20
2023-04-18T09:36:57.105Z,15.14
2023-04-18T09:37:57.105Z,15.17
2023-04-18T09:38:57.440Z,15.20
2023-04-18T09:39:57.070Z,15.27
2023-04-18T09:40:57.055Z,15.29
2023-04-18T09:41:57.067Z,15.03
2023-04-18T09:42:57.030Z,14.98
2023-04-18T09:43:57.014Z,15.36
2023-04-18T09:44:57.007Z,15.72
2023-04-18T09:45:57.382Z,15.65
2023-04-18T09:46:56.992Z,15.54
2023-04-18T09:47:57.070Z,15.65
2023-04-18T09:48:57.010Z,15.86
2023-04-18T09:49:56.964Z,15.94
2023-04-18T09:50:56.953Z,15.65
2023-04-18T09:51:56.937Z,15.47
2023-04-18T09:52:56.922Z,15.47
2023-04-18T09:53:56.930Z,15.60
2023-04-18T09:54:56.899Z,15.53
2023-04-18T09:55:57.826Z,15.72
2023-04-18T09:56:56.880Z,15.87
2023-04-18T09:57:56.878Z,16.15
2023-04-18T09:58:56.860Z,16.35
2023-04-18T09:59:56.869Z,16.35
2023-04-18T10:00:56.929Z,16.43
2023-04-18T10:01:56.900Z,16.71
2023-04-18T10:02:56.878Z,17.19
2023-04-18T10:03:56.907Z,17.01
2023-04-18T10:04:56.831Z,16.46
2023-04-18T10:05:57.950Z,16.02
2023-04-18T10:06:56.770Z,15.50
2023-04-18T10:07:56.782Z,15.16
2023-04-18T10:08:56.778Z,14.83
2023-04-18T10:09:56.915Z,14.61
2023-04-18T10:10:56.722Z,14.50
2023-04-18T10:11:56.721Z,14.46
2023-04-18T10:12:56.703Z,14.60
2023-04-18T10:13:56.718Z,14.88
2023-04-18T10:14:56.684Z,15.11
2023-04-18T10:15:56.754Z,15.29
2023-04-18T10:16:56.673Z,15.36
2023-04-18T10:18:56.646Z,15.56
2023-04-18T10:19:56.672Z,15.72
2023-04-18T10:20:56.625Z,15.68
2023-04-18T10:21:56.627Z,15.62
2023-04-18T10:22:56.683Z,15.68
2023-04-18T10:23:56.601Z,15.83
2023-04-18T10:24:56.600Z,15.97
2023-04-18T10:25:56.579Z,16.31
2023-04-18T10:26:56.556Z,16.73
2023-04-18T10:27:56.567Z,17.34
2023-04-18T10:28:56.812Z,17.82
2023-04-18T10:29:56.540Z,17.54
2023-04-18T10:30:56.607Z,17.19
2023-04-18T10:31:56.576Z,17.06
2023-04-18T10:32:56.537Z,17.07
2023-04-18T10:34:56.483Z,17.21
2023-04-18T10:35:56.517Z,17.12
2023-04-18T10:36:57.273Z,17.33
2023-04-18T10:37:56.466Z,17.19
2023-04-18T10:38:56.439Z,17.12
2023-04-18T10:39:56.435Z,17.40
2023-04-18T10:40:56.421Z,17.66
2023-04-18T10:41:56.418Z,17.37
2023-04-18T10:42:56.398Z,17.04
2023-04-18T10:43:56.398Z,17.33
2023-04-18T10:44:56.373Z,17.43
2023-04-18T10:45:56.375Z,17.51
2023-04-18T10:46:56.365Z,17.78
2023-04-18T10:47:56.386Z,18.02
2023-04-18T10:48:56.331Z,18.21
2023-04-18T10:49:56.340Z,17.93
2023-04-18T10:50:57.133Z,17.51
2023-04-18T10:51:56.307Z,16.71
2023-04-18T10:52:56.303Z,16.70
2023-04-18T10:53:56.291Z,17.07
2023-04-18T10:54:58.447Z,17.31
2023-04-18T10:55:56.265Z,17.84
2023-04-18T10:56:56.250Z,18.11
2023-04-18T10:57:56.254Z,17.90
2023-04-18T10:58:56.235Z,17.79
2023-04-18T10:59:56.407Z,17.41
2023-04-18T11:00:56.237Z,16.88
2023-04-18T11:01:56.231Z,17.08
2023-04-18T11:02:56.538Z,17.22
2023-04-18T11:03:56.245Z,17.48
2023-04-18T11:04:56.209Z,17.82
2023-04-18T11:05:56.165Z,17.59
2023-04-18T11:06:56.141Z,17.23
2023-04-18T11:07:56.138Z,17.21
2023-04-18T11:08:56.141Z,17.40
2023-04-18T11:09:56.116Z,17.46
2023-04-18T11:10:56.101Z,17.28
2023-04-18T11:11:56.095Z,17.11
2023-04-18T11:12:56.131Z,17.04
2023-04-18T11:13:56.084Z,17.26
2023-04-18T11:14:56.067Z,17.15
2023-04-18T11:15:56.057Z,16.98
2023-04-18T11:16:56.077Z,17.28
2023-04-18T11:17:56.073Z,17.70
2023-04-18T11:18:56.021Z,17.34
2023-04-18T11:19:56.011Z,17.64
2023-04-18T11:20:56.002Z,18.11
2023-04-18T11:21:55.990Z,18.29
2023-04-18T11:22:55.983Z,18.47
2023-04-18T11:23:55.971Z,18.76
2023-04-18T11:24:55.959Z,18.48
2023-04-18T11:25:55.948Z,18.33
2023-04-18T11:26:56.442Z,18.10
2023-04-18T11:27:55.919Z,17.92
2023-04-18T11:28:55.920Z,17.89
2023-04-18T11:29:55.928Z,17.95
2023-04-18T11:30:55.903Z,18.08
2023-04-18T11:31:58.591Z,17.92
2023-04-18T11:32:56.014Z,18.00
2023-04-18T11:33:55.863Z,17.66
2023-04-18T11:34:55.856Z,17.38
2023-04-18T11:35:55.829Z,17.55
2023-04-18T11:36:55.838Z,17.58
2023-04-18T11:37:55.828Z,17.79
2023-04-18T11:38:55.833Z,18.27
2023-04-18T11:39:55.792Z,18.65
2023-04-18T11:40:55.799Z,18.69
2023-04-18T11:41:55.775Z,18.94
2023-04-18T11:42:55.772Z,18.66
2023-04-18T11:43:55.746Z,18.82
2023-04-18T11:44:55.746Z,19.22
2023-04-18T11:45:55.854Z,19.58
2023-04-18T11:46:55.743Z,19.96
2023-04-18T11:47:55.719Z,19.78
2023-04-18T11:48:55.735Z,19.33
2023-04-18T11:49:57.087Z,19.33
2023-04-18T11:50:56.489Z,18.67
2023-04-18T11:51:55.666Z,18.63
2023-04-18T11:52:55.668Z,18.72
2023-04-18T11:53:55.648Z,18.99
2023-04-18T11:54:55.992Z,19.36
2023-04-18T11:55:55.646Z,19.76
2023-04-18T11:56:55.644Z,19.96
2023-04-18T11:57:55.609Z,19.86
2023-04-18T11:58:55.605Z,19.87
2023-04-18T11:59:56.432Z,19.65
2023-04-18T12:00:55.583Z,19.55
2023-04-18T12:01:58.743Z,19.91
2023-04-18T12:02:55.634Z,19.91
2023-04-18T12:03:55.976Z,20.16
2023-04-18T12:04:56.095Z,19.84
2023-04-18T12:05:55.708Z,20.28
2023-04-18T12:06:55.529Z,20.38
2023-04-18T12:07:55.493Z,21.03
2023-04-18T12:08:55.500Z,21.42
2023-04-18T12:09:55.487Z,21.14
2023-04-18T12:10:55.477Z,21.56
2023-04-18T12:11:55.474Z,21.91
2023-04-18T12:12:55.457Z,21.68
2023-04-18T12:13:55.442Z,22.24
2023-04-18T12:14:55.437Z,22.21
2023-04-18T12:15:55.464Z,21.52
2023-04-18T12:16:55.419Z,21.77
2023-04-18T12:17:55.429Z,22.17
2023-04-18T12:18:55.388Z,22.49
2023-04-18T12:19:55.387Z,22.65
2023-04-18T12:20:55.367Z,22.97
2023-04-18T12:21:55.353Z,23.23
2023-04-18T12:22:55.358Z,22.72
2023-04-18T12:23:55.355Z,21.62
2023-04-18T12:24:55.325Z,21.42
2023-04-18T12:25:55.328Z,21.24
2023-04-18T12:26:55.315Z,21.46
2023-04-18T12:27:55.301Z,21.01
2023-04-18T12:28:55.300Z,20.94
2023-04-18T12:29:55.272Z,21.47
2023-04-18T12:30:55.266Z,22.12
2023-04-18T12:31:55.332Z,22.02
2023-04-18T12:32:55.335Z,22.00
2023-04-18T12:33:55.223Z,21.47
2023-04-18T12:34:55.231Z,21.14
2023-04-18T12:35:55.197Z,20.99
2023-04-18T12:36:55.202Z,20.64
2023-04-18T12:37:55.181Z,20.14
2023-04-18T12:38:55.182Z,19.62
2023-04-18T12:39:55.153Z,18.85
2023-04-18T12:40:55.172Z,18.29
2023-04-18T12:41:55.142Z,18.42
2023-04-18T12:42:55.140Z,18.84
2023-04-18T12:43:55.117Z,19.44
2023-04-18T12:44:55.126Z,19.81
2023-04-18T12:45:55.102Z,19.43
2023-04-18T12:46:55.146Z,19.54
2023-04-18T12:47:55.142Z,19.91
2023-04-18T12:48:55.066Z,20.61
2023-04-18T12:49:55.057Z,20.35
2023-04-18T12:50:55.079Z,20.26
2023-04-18T12:51:55.029Z,20.33
2023-04-18T12:52:55.054Z,20.66
2023-04-18T12:53:55.016Z,21.07
2023-04-18T12:54:55.012Z,21.28
2023-04-18T12:55:54.990Z,21.61
2023-04-18T12:56:55.028Z,21.34
2023-04-18T12:57:54.968Z,21.64
2023-04-18T12:58:54.970Z,21.47
2023-04-18T12:59:54.958Z,21.19
2023-04-18T13:00:54.998Z,20.92
2023-04-18T13:01:54.974Z,21.01
2023-04-18T13:02:55.083Z,20.99
2023-04-18T13:04:08.158Z,21.16
2023-04-18T13:04:55.957Z,20.24
2023-04-18T13:05:54.895Z,19.48
2023-04-18T13:06:54.892Z,19.40
2023-04-18T13:08:08.488Z,19.68